Time;durP1;ratioP1;P1;durP2;ratioP2;P2;SDS_P1;SDS_P2;PMS_P1;PMS_P2;Temp;Humidity;BMP_temperature;BMP_pressure;BME280_temperature;BME280_humidity;BME280_pressure;Samples;Min_cycle;Max_cycle;Signal;HPM_P1;HPM_P2
2022/08/23 00:01:17;;;;;;;16.88;6.07;;;;;;;;;;6273936;22;20003;-89
2022/08/23 00:03:43;;;;;;;13.65;5.60;;;;;;;;;;6274627;22;20011;-89
2022/08/23 00:06:10;;;;;;;16.80;6.13;;;;;;;;;;6271287;22;20014;-89
2022/08/23 00:08:37;;;;;;;13.05;5.07;;;;;;;;;;6273047;22;20084;-89
2022/08/23 00:11:04;;;;;;;13.70;5.75;;;;;;;;;;6272101;22;20503;-89
2022/08/23 00:13:31;;;;;;;11.43;6.05;;;;;;;;;;6272194;22;20106;-89
2022/08/23 00:15:57;;;;;;;14.23;5.40;;;;;;;;;;6272818;22;20084;-89
2022/08/23 00:18:23;;;;;;;12.25;5.68;;;;;;;;;;6246837;22;20339;-89
2022/08/23 00:20:50;;;;;;;14.57;6.35;;;;;;;;;;6273857;22;20054;-89
2022/08/23 00:23:16;;;;;;;13.88;5.90;;;;;;;;;;6271323;22;19999;-89
2022/08/23 00:25:42;;;;;;;13.57;6.05;;;;;;;;;;6272752;22;20007;-89
2022/08/23 00:28:09;;;;;;;16.40;7.35;;;;;;;;;;6274227;22;20007;-89
2022/08/23 00:30:35;;;;;;;20.17;6.93;;;;;;;;;;6273982;22;20033;-89
2022/08/23 00:33:01;;;;;;;11.52;6.45;;;;;;;;;;6247757;22;20465;-89
2022/08/23 00:35:28;;;;;;;23.02;7.15;;;;;;;;;;6300539;22;19999;-89
2022/08/23 00:37:56;;;;;;;22.38;7.32;;;;;;;;;;6245901;22;20088;-89
2022/08/23 00:40:29;;;;;;;12.48;6.72;;;;;;;;;;6271841;22;20386;-89
2022/08/23 00:48:45;;;;;;;15.05;6.10;;;;;;;;;;6300103;22;20018;-89
2022/08/23 00:51:20;;;;;;;15.23;6.53;;;;;;;;;;6247428;22;20007;-89
2022/08/23 00:53:51;;;;;;;15.35;6.18;;;;;;;;;;6274219;22;20493;-88
2022/08/23 00:56:18;;;;;;;11.90;6.72;;;;;;;;;;6272356;22;20324;-89
2022/08/23 00:58:45;;;;;;;18.40;6.97;;;;;;;;;;6266692;22;20412;-89
2022/08/23 01:01:14;;;;;;;17.58;7.47;;;;;;;;;;6269595;22;20007;-89
2022/08/23 01:03:42;;;;;;;10.25;6.60;;;;;;;;;;6268332;22;20010;-89
2022/08/23 01:06:09;;;;;;;13.80;6.85;;;;;;;;;;6269692;22;20054;-89
2022/08/23 01:08:36;;;;;;;16.73;7.82;;;;;;;;;;6268041;22;20034;-88
2022/08/23 01:11:25;;;;;;;18.20;7.90;;;;;;;;;;6268654;22;20046;-89
2022/08/23 01:14:02;;;;;;;23.65;8.43;;;;;;;;;;6244972;22;20012;-89
2022/08/23 01:16:36;;;;;;;13.05;7.30;;;;;;;;;;6266851;22;20832;-88
2022/08/23 01:19:04;;;;;;;18.10;6.80;;;;;;;;;;6267318;22;19999;-89
2022/08/23 01:21:38;;;;;;;14.00;8.27;;;;;;;;;;6268230;22;20004;-89
2022/08/23 01:24:05;;;;;;;12.40;6.78;;;;;;;;;;6267658;22;20494;-88
2022/08/23 01:26:34;;;;;;;17.58;6.90;;;;;;;;;;6265286;22;20023;-89
2022/08/23 01:29:01;;;;;;;17.92;7.78;;;;;;;;;;6265833;22;20087;-89
2022/08/23 01:31:28;;;;;;;14.63;7.00;;;;;;;;;;6266673;22;20262;-89
2022/08/23 01:33:57;;;;;;;14.13;7.38;;;;;;;;;;6241852;22;20019;-89
2022/08/23 01:36:23;;;;;;;19.67;6.82;;;;;;;;;;6268567;22;20015;-89
2022/08/23 01:38:49;;;;;;;13.63;7.38;;;;;;;;;;6267918;22;20061;-90
2022/08/23 01:41:15;;;;;;;16.02;7.25;;;;;;;;;;6241940;22;20090;-90
2022/08/23 01:43:41;;;;;;;17.60;7.25;;;;;;;;;;6268947;22;20007;-89
2022/08/23 01:46:13;;;;;;;17.60;7.28;;;;;;;;;;6243049;22;20098;-89
2022/08/23 01:48:40;;;;;;;13.93;7.05;;;;;;;;;;6266499;22;20507;-89
2022/08/23 01:51:06;;;;;;;12.90;6.35;;;;;;;;;;6268086;22;20003;-89
2022/08/23 01:53:33;;;;;;;13.55;6.95;;;;;;;;;;6242442;22;20035;-89
2022/08/23 01:56:00;;;;;;;16.08;8.30;;;;;;;;;;6268173;22;20012;-90
2022/08/23 01:58:27;;;;;;;21.73;8.90;;;;;;;;;;6268710;22;20012;-89
2022/08/23 02:00:53;;;;;;;19.55;7.88;;;;;;;;;;6240743;22;20007;-90
2022/08/23 02:03:20;;;;;;;20.70;8.60;;;;;;;;;;6267357;22;20063;-89
2022/08/23 02:05:46;;;;;;;20.38;8.48;;;;;;;;;;6242373;22;20073;-90
2022/08/23 02:10:58;;;;;;;20.55;8.20;;;;;;;;;;6268510;22;20011;-90
2022/08/23 02:13:24;;;;;;;16.92;8.25;;;;;;;;;;6268355;22;20011;-90
2022/08/23 02:15:51;;;;;;;15.00;8.68;;;;;;;;;;6241509;22;20007;-90
2022/08/23 02:18:18;;;;;;;26.50;10.60;;;;;;;;;;6265508;22;20356;-89
2022/08/23 02:20:49;;;;;;;17.65;9.88;;;;;;;;;;6267039;22;20059;-88
2022/08/23 02:23:15;;;;;;;17.17;8.35;;;;;;;;;;6265923;22;20384;-89
2022/08/23 02:25:41;;;;;;;12.15;8.25;;;;;;;;;;6240515;22;20420;-89
2022/08/23 02:28:08;;;;;;;19.55;7.72;;;;;;;;;;6268064;22;20104;-90
2022/08/23 02:30:34;;;;;;;14.90;8.40;;;;;;;;;;6266107;22;20007;-90
2022/08/23 02:33:00;;;;;;;17.27;8.13;;;;;;;;;;6266936;22;20099;-90
2022/08/23 02:35:26;;;;;;;19.92;8.68;;;;;;;;;;6267553;22;20058;-90
2022/08/23 02:37:52;;;;;;;20.20;9.57;;;;;;;;;;6240160;22;20115;-89
2022/08/23 02:40:18;;;;;;;18.95;10.98;;;;;;;;;;6241911;22;20096;-90
2022/08/23 02:42:45;;;;;;;19.52;9.70;;;;;;;;;;6267782;22;20008;-89
2022/08/23 02:45:11;;;;;;;16.10;8.93;;;;;;;;;;6266089;22;20008;-89
2022/08/23 02:47:38;;;;;;;25.88;9.85;;;;;;;;;;6266900;22;20375;-90
2022/08/23 02:50:05;;;;;;;21.35;10.75;;;;;;;;;;6242536;22;20047;-89
2022/08/23 02:52:31;;;;;;;15.50;8.57;;;;;;;;;;6266755;22;20324;-90
2022/08/23 02:54:57;;;;;;;16.75;8.52;;;;;;;;;;6266180;22;20355;-89
2022/08/23 02:57:24;;;;;;;22.02;9.55;;;;;;;;;;6239423;22;20012;-89
2022/08/23 02:59:51;;;;;;;17.67;9.73;;;;;;;;;;6271566;22;20098;-90
2022/08/23 03:02:17;;;;;;;16.27;10.02;;;;;;;;;;6247246;22;20063;-90
2022/08/23 03:04:43;;;;;;;19.38;10.15;;;;;;;;;;6248287;22;20015;-89
2022/08/23 03:07:09;;;;;;;21.38;9.90;;;;;;;;;;6273234;22;20015;-90
2022/08/23 03:09:35;;;;;;;15.57;8.95;;;;;;;;;;6247215;22;20404;-89
2022/08/23 03:12:01;;;;;;;18.73;8.50;;;;;;;;;;6248020;22;20011;-90
2022/08/23 03:14:27;;;;;;;20.20;9.30;;;;;;;;;;6246352;22;20011;-90
2022/08/23 03:16:54;;;;;;;18.83;8.07;;;;;;;;;;6246607;22;20011;-90
2022/08/23 03:19:20;;;;;;;20.00;9.48;;;;;;;;;;6245230;22;20332;-88
2022/08/23 03:21:46;;;;;;;18.95;11.10;;;;;;;;;;6271262;22;20007;-89
2022/08/23 03:24:13;;;;;;;25.90;12.23;;;;;;;;;;6273639;22;20003;-89
2022/08/23 03:26:43;;;;;;;23.48;11.05;;;;;;;;;;6296113;22;20038;-89
2022/08/23 03:29:09;;;;;;;30.70;11.82;;;;;;;;;;6273341;22;20558;-89
2022/08/23 03:31:37;;;;;;;26.55;11.15;;;;;;;;;;6271523;22;20003;-90
2022/08/23 03:34:04;;;;;;;22.08;11.05;;;;;;;;;;6273157;22;20103;-89
2022/08/23 03:36:30;;;;;;;27.15;11.93;;;;;;;;;;6299432;22;20004;-90
2022/08/23 03:38:56;;;;;;;23.23;12.68;;;;;;;;;;6246215;22;20094;-90
2022/08/23 03:41:23;;;;;;;27.55;13.73;;;;;;;;;;6272551;22;20025;-90
2022/08/23 03:43:49;;;;;;;24.05;12.23;;;;;;;;;;6246262;22;20012;-89
2022/08/23 03:46:22;;;;;;;26.60;11.55;;;;;;;;;;6246893;22;20359;-90
2022/08/23 03:48:52;;;;;;;23.33;11.70;;;;;;;;;;6249104;22;20344;-89
2022/08/23 03:51:19;;;;;;;33.55;11.75;;;;;;;;;;6273623;22;20420;-90
2022/08/23 03:53:48;;;;;;;21.33;11.75;;;;;;;;;;6272485;22;20007;-89
2022/08/23 03:56:24;;;;;;;24.13;11.80;;;;;;;;;;6247241;22;20011;-90
2022/08/23 03:58:50;;;;;;;19.10;11.82;;;;;;;;;;6271727;22;20015;-90
2022/08/23 04:01:16;;;;;;;27.13;10.55;;;;;;;;;;6247133;22;20012;-89
2022/08/23 04:03:42;;;;;;;20.88;10.57;;;;;;;;;;6246574;22;20011;-89
2022/08/23 04:06:09;;;;;;;23.52;11.40;;;;;;;;;;6272675;22;20018;-89
2022/08/23 04:08:35;;;;;;;23.55;10.77;;;;;;;;;;6249018;22;20014;-89
2022/08/23 04:11:02;;;;;;;20.88;10.60;;;;;;;;;;6247159;22;20427;-89
2022/08/23 04:13:28;;;;;;;21.17;11.43;;;;;;;;;;6272201;22;20014;-89
2022/08/23 04:15:55;;;;;;;19.75;11.15;;;;;;;;;;6270652;22;20007;-89
2022/08/23 04:18:21;;;;;;;17.50;10.60;;;;;;;;;;6246306;22;20003;-89
2022/08/23 04:20:48;;;;;;;21.88;11.90;;;;;;;;;;6246596;22;20011;-90
2022/08/23 04:23:14;;;;;;;25.52;10.98;;;;;;;;;;6268762;22;20003;-89
2022/08/23 04:25:42;;;;;;;15.32;9.45;;;;;;;;;;6271544;22;20027;-90
2022/08/23 04:28:08;;;;;;;18.23;9.80;;;;;;;;;;6274144;22;20011;-91
2022/08/23 04:30:34;;;;;;;17.27;10.93;;;;;;;;;;6273047;22;20007;-87
2022/08/23 04:33:00;;;;;;;18.85;11.27;;;;;;;;;;6273331;22;20017;-87
2022/08/23 04:35:26;;;;;;;21.60;11.90;;;;;;;;;;6272797;22;20082;-87
2022/08/23 04:37:53;;;;;;;20.45;11.55;;;;;;;;;;6273781;22;20011;-87
2022/08/23 04:43:03;;;;;;;23.92;12.43;;;;;;;;;;6276499;22;20064;-88
2022/08/23 04:45:31;;;;;;;20.27;12.57;;;;;;;;;;6247241;22;20094;-88
2022/08/23 04:47:57;;;;;;;22.65;12.35;;;;;;;;;;6247403;22;20010;-87
2022/08/23 04:50:23;;;;;;;30.88;14.13;;;;;;;;;;6270152;22;20266;-87
2022/08/23 04:52:49;;;;;;;25.85;14.40;;;;;;;;;;6272732;22;20085;-87
2022/08/23 04:55:16;;;;;;;27.08;14.32;;;;;;;;;;6272550;22;20296;-87
2022/08/23 04:57:42;;;;;;;29.90;15.73;;;;;;;;;;6245868;22;20347;-87
2022/08/23 05:00:10;;;;;;;29.27;15.77;;;;;;;;;;6247759;22;20058;-87
2022/08/23 05:02:37;;;;;;;29.52;15.55;;;;;;;;;;6273617;22;20522;-87
2022/08/23 05:05:03;;;;;;;30.52;15.25;;;;;;;;;;6271994;22;20025;-87
2022/08/23 05:07:30;;;;;;;27.15;15.95;;;;;;;;;;6247463;22;20076;-87
2022/08/23 05:09:56;;;;;;;28.58;14.77;;;;;;;;;;6272617;22;20007;-87
2022/08/23 05:12:22;;;;;;;28.85;15.20;;;;;;;;;;6273175;22;20367;-87
2022/08/23 05:14:48;;;;;;;29.65;15.63;;;;;;;;;;6272060;22;20153;-88
2022/08/23 05:17:14;;;;;;;31.40;15.43;;;;;;;;;;6247175;22;20037;-88
2022/08/23 05:19:40;;;;;;;25.50;15.70;;;;;;;;;;6245560;22;20003;-88
2022/08/23 05:22:06;;;;;;;24.77;15.65;;;;;;;;;;6247327;22;20410;-87
2022/08/23 05:24:33;;;;;;;24.55;13.80;;;;;;;;;;6273750;22;20339;-88
2022/08/23 05:26:59;;;;;;;26.08;15.20;;;;;;;;;;6248011;22;20110;-88
2022/08/23 05:29:25;;;;;;;22.58;14.05;;;;;;;;;;6248389;22;20018;-88
2022/08/23 05:31:51;;;;;;;26.33;14.40;;;;;;;;;;6250193;22;20007;-88
2022/08/23 05:34:24;;;;;;;29.42;13.25;;;;;;;;;;6276345;22;20352;-88
2022/08/23 05:36:51;;;;;;;25.45;14.80;;;;;;;;;;6250367;22;20011;-88
2022/08/23 05:39:18;;;;;;;26.88;13.93;;;;;;;;;;6275670;22;20348;-88
2022/08/23 05:41:44;;;;;;;29.88;13.73;;;;;;;;;;6274497;22;20370;-88
2022/08/23 05:44:10;;;;;;;19.88;13.30;;;;;;;;;;6249498;22;20423;-88
2022/08/23 05:46:36;;;;;;;21.98;13.20;;;;;;;;;;6274926;22;20007;-88
2022/08/23 05:49:03;;;;;;;24.08;13.98;;;;;;;;;;6249166;22;20011;-88
2022/08/23 05:51:30;;;;;;;18.75;13.13;;;;;;;;;;6276294;22;20022;-88
2022/08/23 05:53:58;;;;;;;19.60;14.05;;;;;;;;;;6273263;22;20060;-88
2022/08/23 05:56:25;;;;;;;21.85;12.95;;;;;;;;;;6274663;22;20487;-88
2022/08/23 05:58:52;;;;;;;23.80;14.02;;;;;;;;;;6268250;22;20015;-87
2022/08/23 06:01:19;;;;;;;20.20;13.35;;;;;;;;;;6267366;22;20042;-88
2022/08/23 06:03:45;;;;;;;20.85;12.52;;;;;;;;;;6268447;22;20333;-88
2022/08/23 06:06:13;;;;;;;18.45;13.35;;;;;;;;;;6269126;22;20015;-88
2022/08/23 06:08:39;;;;;;;18.30;11.38;;;;;;;;;;6268734;22;20463;-87
2022/08/23 06:11:07;;;;;;;16.70;11.63;;;;;;;;;;6267427;22;20386;-88
2022/08/23 06:13:34;;;;;;;19.10;12.13;;;;;;;;;;6270257;22;20423;-88
2022/08/23 06:16:00;;;;;;;22.05;11.90;;;;;;;;;;6242513;22;20022;-88
2022/08/23 06:18:26;;;;;;;17.23;11.02;;;;;;;;;;6268625;22;20463;-88
2022/08/23 06:21:10;;;;;;;26.52;11.88;;;;;;;;;;6269353;22;20011;-88
2022/08/23 06:23:37;;;;;;;20.67;12.63;;;;;;;;;;6268310;22;20353;-88
2022/08/23 06:26:13;;;;;;;22.70;13.50;;;;;;;;;;6266656;22;20003;-88
2022/08/23 06:28:48;;;;;;;18.73;13.13;;;;;;;;;;6269263;22;20428;-88
2022/08/23 06:31:44;;;;;;;17.90;11.27;;;;;;;;;;6267857;22;20035;-88
2022/08/23 06:34:06;;;;;;;23.30;11.50;;;;;;;;;;6270275;22;20000;-88
2022/08/23 06:36:32;;;;;;;23.95;11.35;;;;;;;;;;6267935;22;20449;-88
2022/08/23 06:38:58;;;;;;;18.80;11.57;;;;;;;;;;6268976;22;20152;-88
2022/08/23 06:41:25;;;;;;;18.63;11.35;;;;;;;;;;6243586;22;20022;-88
2022/08/23 06:43:51;;;;;;;18.30;11.23;;;;;;;;;;6243760;22;20431;-88
2022/08/23 06:46:22;;;;;;;17.23;10.57;;;;;;;;;;6269913;22;20431;-88
2022/08/23 06:48:48;;;;;;;12.95;9.82;;;;;;;;;;6268450;22;20344;-88
2022/08/23 06:51:30;;;;;;;22.20;10.55;;;;;;;;;;6244626;22;20011;-88
2022/08/23 06:53:58;;;;;;;19.67;10.23;;;;;;;;;;6269522;22;20018;-88
2022/08/23 06:56:25;;;;;;;18.00;10.40;;;;;;;;;;6267585;22;20428;-88
2022/08/23 06:58:58;;;;;;;18.92;10.45;;;;;;;;;;6268453;22;20450;-88
2022/08/23 07:01:33;;;;;;;14.25;10.57;;;;;;;;;;6243869;22;20071;-88
2022/08/23 07:04:00;;;;;;;20.50;9.53;;;;;;;;;;6268602;22;20011;-88
2022/08/23 07:06:27;;;;;;;13.73;9.35;;;;;;;;;;6242784;22;20007;-88
2022/08/23 07:08:53;;;;;;;19.77;9.77;;;;;;;;;;6268319;22;20371;-88
2022/08/23 07:11:20;;;;;;;16.13;9.70;;;;;;;;;;6267762;22;20008;-88
2022/08/23 07:13:47;;;;;;;10.85;8.70;;;;;;;;;;6268213;22;20031;-88
2022/08/23 07:16:18;;;;;;;11.48;7.95;;;;;;;;;;6242053;22;20333;-88
2022/08/23 07:18:45;;;;;;;18.70;8.60;;;;;;;;;;6269167;22;20008;-88
2022/08/23 07:21:11;;;;;;;13.63;8.32;;;;;;;;;;6269318;22;20003;-89
2022/08/23 07:23:38;;;;;;;15.32;9.60;;;;;;;;;;6242688;22;20432;-88
2022/08/23 07:26:09;;;;;;;14.95;7.97;;;;;;;;;;6266867;22;20031;-88
2022/08/23 07:28:35;;;;;;;12.07;6.93;;;;;;;;;;6269621;22;20484;-88
2022/08/23 07:31:11;;;;;;;12.20;6.80;;;;;;;;;;6268663;22;20008;-88
2022/08/23 07:33:38;;;;;;;10.23;6.88;;;;;;;;;;6268812;22;20467;-89
2022/08/23 07:36:04;;;;;;;19.92;7.45;;;;;;;;;;6268128;22;20011;-89
2022/08/23 07:38:31;;;;;;;9.07;6.78;;;;;;;;;;6241408;22;20015;-88
2022/08/23 07:40:57;;;;;;;13.35;6.63;;;;;;;;;;6270504;22;20318;-88
2022/08/23 07:43:23;;;;;;;12.32;6.47;;;;;;;;;;6268676;22;20423;-88
2022/08/23 07:45:49;;;;;;;8.85;6.68;;;;;;;;;;6243181;22;20340;-89
2022/08/23 07:48:15;;;;;;;7.80;6.75;;;;;;;;;;6268394;22;20008;-89
2022/08/23 07:50:41;;;;;;;11.27;6.55;;;;;;;;;;6268631;22;20008;-89
2022/08/23 07:53:07;;;;;;;13.57;6.68;;;;;;;;;;6268666;22;20008;-89
2022/08/23 07:55:34;;;;;;;9.95;6.00;;;;;;;;;;6243279;22;20038;-89
2022/08/23 07:58:00;;;;;;;13.27;6.47;;;;;;;;;;6267755;22;20087;-89
2022/08/23 08:00:26;;;;;;;11.98;6.25;;;;;;;;;;6243132;22;20023;-89
2022/08/23 08:02:52;;;;;;;11.52;5.72;;;;;;;;;;6244549;22;20004;-89
2022/08/23 08:05:18;;;;;;;12.27;6.35;;;;;;;;;;6270655;22;20130;-87
2022/08/23 08:07:44;;;;;;;12.18;5.32;;;;;;;;;;6269255;22;20548;-89
2022/08/23 08:10:11;;;;;;;11.25;5.80;;;;;;;;;;6244765;22;20073;-89
2022/08/23 08:12:37;;;;;;;11.07;5.95;;;;;;;;;;6245569;22;20043;-89
2022/08/23 08:15:03;;;;;;;13.88;6.03;;;;;;;;;;6269924;22;20444;-89
2022/08/23 08:17:29;;;;;;;9.43;5.45;;;;;;;;;;6269671;22;20034;-89
2022/08/23 08:19:55;;;;;;;9.00;5.22;;;;;;;;;;6270821;22;20142;-89
2022/08/23 08:22:22;;;;;;;8.82;5.63;;;;;;;;;;6269629;22;20011;-89
2022/08/23 08:24:48;;;;;;;12.48;6.28;;;;;;;;;;6244942;22;20497;-89
2022/08/23 08:27:14;;;;;;;10.02;4.90;;;;;;;;;;6271440;22;20008;-89
2022/08/23 08:29:42;;;;;;;10.15;5.57;;;;;;;;;;6243098;22;20011;-89
2022/08/23 08:32:08;;;;;;;14.93;5.13;;;;;;;;;;6245338;22;20043;-89
2022/08/23 08:34:35;;;;;;;19.23;6.07;;;;;;;;;;6244621;22;20100;-89
2022/08/23 08:37:01;;;;;;;12.75;5.93;;;;;;;;;;6269957;22;20008;-89
2022/08/23 08:39:28;;;;;;;9.80;6.05;;;;;;;;;;6270460;22;20003;-89
2022/08/23 08:42:06;;;;;;;7.63;5.45;;;;;;;;;;6267890;22;20007;-88
2022/08/23 08:44:55;;;;;;;9.30;5.35;;;;;;;;;;6267949;22;20015;-89
2022/08/23 08:47:33;;;;;;;10.80;5.60;;;;;;;;;;6250176;22;20046;-89
2022/08/23 08:50:09;;;;;;;9.05;5.00;;;;;;;;;;6269133;22;20455;-88
2022/08/23 08:52:35;;;;;;;;;;;;;;;;;;6270496;22;20019;-88
2022/08/23 08:55:00;;;;;;;;;;;;;;;;;;6268686;22;20286;-89
2022/08/23 08:57:27;;;;;;;11.95;4.70;;;;;;;;;;6269030;22;20316;-88
2022/08/23 09:00:01;;;;;;;11.80;4.68;;;;;;;;;;6273453;22;20026;-89
2022/08/23 09:02:29;;;;;;;7.20;4.28;;;;;;;;;;6300945;22;20318;-89
2022/08/23 09:04:57;;;;;;;12.13;4.80;;;;;;;;;;6274104;22;20443;-89
2022/08/23 09:07:41;;;;;;;11.02;5.55;;;;;;;;;;6249331;22;20438;-89
2022/08/23 09:10:33;;;;;;;11.25;3.95;;;;;;;;;;6274036;22;20007;-88
2022/08/23 09:13:18;;;;;;;11.88;5.50;;;;;;;;;;6301220;22;20011;-89
2022/08/23 09:16:17;;;;;;;9.80;5.15;;;;;;;;;;6274495;22;20052;-88
2022/08/23 09:18:43;;;;;;;9.70;4.60;;;;;;;;;;6191317;22;20537;-88
2022/08/23 09:21:10;;;;;;;10.25;5.18;;;;;;;;;;6246974;22;20022;-89
2022/08/23 09:23:40;;;;;;;5.43;3.75;;;;;;;;;;6247491;22;20003;-89
2022/08/23 09:26:15;;;;;;;10.52;4.65;;;;;;;;;;6272950;22;20035;-89
2022/08/23 09:28:42;;;;;;;7.68;4.18;;;;;;;;;;6273783;22;20003;-88
2022/08/23 09:31:09;;;;;;;10.13;5.15;;;;;;;;;;6301190;22;19999;-89
2022/08/23 09:33:40;;;;;;;8.40;3.88;;;;;;;;;;6249086;22;20003;-89
2022/08/23 09:36:17;;;;;;;7.80;4.20;;;;;;;;;;6274602;22;20327;-89
2022/08/23 09:39:09;;;;;;;5.90;3.85;;;;;;;;;;6272391;22;20398;-89
2022/08/23 09:41:42;;;;;;;4.97;3.38;;;;;;;;;;6215987;22;20552;-89
2022/08/23 09:44:12;;;;;;;7.57;3.08;;;;;;;;;;6274820;22;20038;-89
2022/08/23 09:46:40;;;;;;;5.25;3.60;;;;;;;;;;6300356;22;20000;-88
2022/08/23 09:49:27;;;;;;;7.82;3.92;;;;;;;;;;6273651;22;20009;-89
2022/08/23 09:51:54;;;;;;;7.95;3.38;;;;;;;;;;6272803;22;20305;-89
2022/08/23 09:54:32;;;;;;;7.80;3.65;;;;;;;;;;6273909;22;20014;-89
2022/08/23 09:56:59;;;;;;;5.05;3.10;;;;;;;;;;6273031;22;20011;-89
2022/08/23 09:59:25;;;;;;;7.15;4.10;;;;;;;;;;6300022;22;20404;-89
2022/08/23 10:01:53;;;;;;;7.00;3.50;;;;;;;;;;6271988;22;20010;-88
2022/08/23 10:04:24;;;;;;;5.95;3.38;;;;;;;;;;6301085;22;20056;-89
2022/08/23 10:06:51;;;;;;;14.05;3.33;;;;;;;;;;6273681;22;20011;-88
2022/08/23 10:09:26;;;;;;;7.32;3.38;;;;;;;;;;6274116;22;20090;-89
2022/08/23 10:11:52;;;;;;;;;;;;;;;;;;6274296;22;20376;-89
2022/08/23 10:14:19;;;;;;;9.60;3.30;;;;;;;;;;6273731;22;19997;-88
2022/08/23 10:16:54;;;;;;;6.65;3.10;;;;;;;;;;6273505;22;20007;-89
2022/08/23 10:19:24;;;;;;;10.43;3.42;;;;;;;;;;6272940;22;20515;-89
2022/08/23 10:22:14;;;;;;;10.10;3.22;;;;;;;;;;6272806;22;20397;-89
2022/08/23 10:24:40;;;;;;;7.18;3.63;;;;;;;;;;6253642;22;20010;-89
2022/08/23 10:30:14;;;;;;;15.32;3.40;;;;;;;;;;6299692;22;20022;-89
2022/08/23 10:32:55;;;;;;;9.75;4.25;;;;;;;;;;6272996;22;20018;-89
2022/08/23 10:35:21;;;;;;;5.13;3.95;;;;;;;;;;6272511;22;20014;-89
2022/08/23 10:37:53;;;;;;;6.72;3.63;;;;;;;;;;6273906;22;20013;-88
2022/08/23 10:40:19;;;;;;;5.47;3.55;;;;;;;;;;6272295;22;20518;-89
2022/08/23 10:43:03;;;;;;;7.45;3.95;;;;;;;;;;6272913;22;20486;-89
2022/08/23 10:45:34;;;;;;;8.25;3.92;;;;;;;;;;6272662;22;20439;-89
2022/08/23 10:48:06;;;;;;;12.38;3.97;;;;;;;;;;6272253;22;20341;-89
2022/08/23 10:50:39;;;;;;;10.50;3.80;;;;;;;;;;6272963;22;20024;-88
2022/08/23 10:53:08;;;;;;;9.50;3.78;;;;;;;;;;6274136;22;20499;-89
2022/08/23 10:55:53;;;;;;;15.25;4.13;;;;;;;;;;6271531;22;20207;-89
2022/08/23 10:58:24;;;;;;;7.20;3.40;;;;;;;;;;6271808;22;20022;-89
2022/08/23 11:00:52;;;;;;;3.88;3.45;;;;;;;;;;6267358;22;20451;-89
2022/08/23 11:03:28;;;;;;;8.85;4.65;;;;;;;;;;6266352;22;20387;-88
2022/08/23 11:06:13;;;;;;;10.38;3.92;;;;;;;;;;6267640;22;20096;-88
2022/08/23 11:08:45;;;;;;;6.43;4.32;;;;;;;;;;6267836;22;20012;-88
2022/08/23 11:11:49;;;;;;;7.30;3.85;;;;;;;;;;6267418;22;20439;-89
2022/08/23 11:14:27;;;;;;;6.60;4.45;;;;;;;;;;6115474;23;20088;-88
2022/08/23 11:17:00;;;;;;;9.10;3.90;;;;;;;;;;6090582;23;20465;-88
2022/08/23 11:19:44;;;;;;;4.65;3.28;;;;;;;;;;6206461;22;20428;-89
2022/08/23 11:22:30;;;;;;;4.60;3.20;;;;;;;;;;6267101;22;20468;-89
2022/08/23 11:25:04;;;;;;;7.15;3.85;;;;;;;;;;6265929;22;20000;-89
2022/08/23 11:27:33;;;;;;;14.20;3.90;;;;;;;;;;6267583;22;20121;-88
2022/08/23 11:30:18;;;;;;;8.73;3.25;;;;;;;;;;6267538;22;20224;-89
2022/08/23 11:32:45;;;;;;;8.10;3.47;;;;;;;;;;6266478;22;20003;-89
2022/08/23 11:35:34;;;;;;;7.50;3.55;;;;;;;;;;6268500;22;20428;-88
2022/08/23 11:38:01;;;;;;;9.60;3.58;;;;;;;;;;6268888;22;20012;-88
2022/08/23 11:40:45;;;;;;;10.48;3.00;;;;;;;;;;6271225;22;20072;-89
2022/08/23 11:43:41;;;;;;;15.75;3.45;;;;;;;;;;6269247;22;20000;-88
2022/08/23 11:46:19;;;;;;;6.65;3.78;;;;;;;;;;6230185;22;20003;-89
2022/08/23 11:48:52;;;;;;;6.30;2.78;;;;;;;;;;6268877;22;20032;-88
2022/08/23 11:51:28;;;;;;;9.80;3.35;;;;;;;;;;6269401;22;20010;-89
2022/08/23 11:53:54;;;;;;;11.57;2.90;;;;;;;;;;6269989;22;20475;-89
2022/08/23 11:56:30;;;;;;;9.85;3.28;;;;;;;;;;6268570;22;20003;-88
2022/08/23 11:59:02;;;;;;;12.77;3.22;;;;;;;;;;6268424;22;20010;-89
2022/08/23 12:01:38;;;;;;;4.30;3.22;;;;;;;;;;6268870;22;20037;-89
2022/08/23 12:04:25;;;;;;;7.22;2.95;;;;;;;;;;6242387;22;20012;-89
2022/08/23 12:07:00;;;;;;;5.32;2.60;;;;;;;;;;6268261;22;20073;-88
2022/08/23 12:09:26;;;;;;;;;;;;;;;;;;6266844;22;20431;-88
2022/08/23 12:11:55;;;;;;;8.40;2.95;;;;;;;;;;6269808;22;19997;-88
2022/08/23 12:14:30;;;;;;;5.22;3.10;;;;;;;;;;6270262;22;20010;-88
2022/08/23 12:17:25;;;;;;;9.05;3.65;;;;;;;;;;6269314;22;20059;-89
2022/08/23 12:19:59;;;;;;;5.40;3.03;;;;;;;;;;6267786;22;20004;-89
2022/08/23 12:22:30;;;;;;;6.40;2.60;;;;;;;;;;6269733;22;20438;-88
2022/08/23 12:25:07;;;;;;;6.90;3.75;;;;;;;;;;6265457;22;20451;-88
2022/08/23 12:27:44;;;;;;;5.65;2.63;;;;;;;;;;6267743;22;20061;-88
2022/08/23 12:30:19;;;;;;;5.25;2.90;;;;;;;;;;6268028;22;20008;-88
2022/08/23 12:33:04;;;;;;;5.65;3.00;;;;;;;;;;6268310;22;20483;-89
2022/08/23 12:35:55;;;;;;;8.38;2.65;;;;;;;;;;6268533;22;20043;-88
2022/08/23 12:38:27;;;;;;;3.72;2.75;;;;;;;;;;6268423;22;20034;-89
2022/08/23 12:40:54;;;;;;;8.07;2.75;;;;;;;;;;6270202;22;19999;-88
2022/08/23 12:43:21;;;;;;;5.55;2.85;;;;;;;;;;6269315;22;20008;-88
2022/08/23 12:45:58;;;;;;;5.70;2.95;;;;;;;;;;6270535;22;20007;-88
2022/08/23 12:48:26;;;;;;;5.68;2.92;;;;;;;;;;6267744;22;20007;-88
2022/08/23 12:50:57;;;;;;;6.13;2.75;;;;;;;;;;6269165;22;20004;-88
2022/08/23 12:53:34;;;;;;;6.35;2.92;;;;;;;;;;6268404;22;20087;-88
2022/08/23 12:56:04;;;;;;;4.57;2.60;;;;;;;;;;6267896;22;20441;-89
2022/08/23 12:58:31;;;;;;;6.78;2.90;;;;;;;;;;6267830;22;20012;-88
2022/08/23 13:01:03;;;;;;;4.65;2.80;;;;;;;;;;6267986;22;20439;-88
2022/08/23 13:03:35;;;;;;;10.10;2.95;;;;;;;;;;6266931;22;20008;-88
2022/08/23 13:06:03;;;;;;;6.00;3.20;;;;;;;;;;6268304;22;20086;-88
2022/08/23 13:08:37;;;;;;;6.47;2.92;;;;;;;;;;6266910;22;20014;-88
2022/08/23 13:11:08;;;;;;;4.40;2.90;;;;;;;;;;6266716;22;20456;-88
2022/08/23 13:13:34;;;;;;;3.78;2.90;;;;;;;;;;6267159;22;20015;-88
2022/08/23 13:16:01;;;;;;;5.35;2.95;;;;;;;;;;6267064;22;20778;-88
2022/08/23 13:18:27;;;;;;;5.07;2.60;;;;;;;;;;6267913;22;20011;-88
2022/08/23 13:21:12;;;;;;;8.63;2.85;;;;;;;;;;6269140;22;20013;-88
2022/08/23 13:23:38;;;;;;;9.87;2.83;;;;;;;;;;6266511;22;20004;-88
2022/08/23 13:26:23;;;;;;;5.20;2.92;;;;;;;;;;6238138;22;20012;-88
2022/08/23 13:29:07;;;;;;;6.63;2.87;;;;;;;;;;6269769;22;20004;-88
2022/08/23 13:31:50;;;;;;;5.03;2.83;;;;;;;;;;6265814;22;20011;-88
2022/08/23 13:34:32;;;;;;;10.05;3.28;;;;;;;;;;6268678;22;20039;-89
2022/08/23 13:36:59;;;;;;;6.18;3.13;;;;;;;;;;6266079;22;20062;-88
2022/08/23 13:39:26;;;;;;;4.65;2.67;;;;;;;;;;6268388;22;20008;-88
2022/08/23 13:41:52;;;;;;;12.15;2.97;;;;;;;;;;6267056;22;20296;-88
2022/08/23 13:44:19;;;;;;;5.00;2.53;;;;;;;;;;6242863;22;20015;-88
2022/08/23 13:46:47;;;;;;;6.07;2.58;;;;;;;;;;6267313;22;20031;-88
2022/08/23 13:49:15;;;;;;;5.63;2.58;;;;;;;;;;6268508;22;20014;-88
2022/08/23 13:51:44;;;;;;;12.57;2.58;;;;;;;;;;6269392;22;20015;-88
2022/08/23 13:54:14;;;;;;;8.32;3.05;;;;;;;;;;6267613;22;20424;-88
2022/08/23 13:56:46;;;;;;;4.22;2.40;;;;;;;;;;6267744;22;20008;-89
2022/08/23 13:59:21;;;;;;;10.18;3.00;;;;;;;;;;6267754;22;20318;-87
2022/08/23 14:01:47;;;;;;;4.38;2.50;;;;;;;;;;6265703;22;20102;-88
2022/08/23 14:04:13;;;;;;;6.70;2.72;;;;;;;;;;6243301;22;20011;-88
2022/08/23 14:06:39;;;;;;;6.85;2.40;;;;;;;;;;6241336;22;20341;-88
2022/08/23 14:09:06;;;;;;;6.60;2.70;;;;;;;;;;6242354;22;20054;-88
2022/08/23 14:11:32;;;;;;;4.65;2.53;;;;;;;;;;6241295;22;20058;-88
2022/08/23 14:14:04;;;;;;;6.78;2.33;;;;;;;;;;6268800;22;20454;-88
2022/08/23 14:16:38;;;;;;;12.65;2.83;;;;;;;;;;6265135;22;20011;-88
2022/08/23 14:19:05;;;;;;;6.05;2.33;;;;;;;;;;6267718;22;19999;-88
2022/08/23 14:21:31;;;;;;;4.28;2.65;;;;;;;;;;6266752;22;20432;-88
2022/08/23 14:23:57;;;;;;;13.18;3.78;;;;;;;;;;6241987;22;20011;-88
2022/08/23 14:26:23;;;;;;;7.20;3.35;;;;;;;;;;6240633;22;20007;-88
2022/08/23 14:28:50;;;;;;;3.15;2.28;;;;;;;;;;6241667;22;20089;-88
2022/08/23 14:31:18;;;;;;;8.60;2.70;;;;;;;;;;6265234;22;20072;-88
2022/08/23 14:33:44;;;;;;;7.13;2.92;;;;;;;;;;6266634;22;20026;-89
2022/08/23 14:36:11;;;;;;;5.40;2.60;;;;;;;;;;6267793;22;20443;-88
2022/08/23 14:38:37;;;;;;;6.82;2.40;;;;;;;;;;6269145;22;20328;-88
2022/08/23 14:41:06;;;;;;;4.03;2.90;;;;;;;;;;6265985;22;20072;-88
2022/08/23 14:43:32;;;;;;;5.20;3.03;;;;;;;;;;6265034;22;20110;-88
2022/08/23 14:45:59;;;;;;;3.40;2.42;;;;;;;;;;6267263;22;20018;-88
2022/08/23 14:48:25;;;;;;;5.90;2.85;;;;;;;;;;6265174;22;20033;-88
2022/08/23 14:50:52;;;;;;;5.82;2.83;;;;;;;;;;6268380;22;20007;-88
2022/08/23 14:53:21;;;;;;;7.05;2.75;;;;;;;;;;6265499;22;20442;-88
2022/08/23 14:55:48;;;;;;;8.25;3.55;;;;;;;;;;6266079;22;20106;-88
2022/08/23 14:58:17;;;;;;;8.18;2.90;;;;;;;;;;6266709;22;20039;-88
2022/08/23 15:00:43;;;;;;;6.72;2.65;;;;;;;;;;6264813;22;20764;-88
2022/08/23 15:03:10;;;;;;;5.07;2.92;;;;;;;;;;6265995;22;20086;-88